createdAt,value
2023-08-28T00:00:46.281Z,3.28
2023-08-28T00:03:13.718Z,3.17
2023-08-28T00:05:40.930Z,2.92
2023-08-28T00:08:10.040Z,3.00
2023-08-28T00:10:37.391Z,3.47
2023-08-28T00:13:04.843Z,3.00
2023-08-28T00:15:32.021Z,3.20
2023-08-28T00:17:59.024Z,2.88
2023-08-28T00:20:26.110Z,3.08
2023-08-28T00:22:53.014Z,2.50
2023-08-28T00:25:20.239Z,3.17
2023-08-28T00:27:47.544Z,2.83
2023-08-28T00:30:14.704Z,2.90
2023-08-28T00:32:41.870Z,3.35
2023-08-28T00:35:09.458Z,3.10
2023-08-28T00:37:36.376Z,3.40
2023-08-28T00:40:04.426Z,3.08
2023-08-28T00:42:31.428Z,2.63
2023-08-28T00:44:58.425Z,3.08
2023-08-28T00:47:26.330Z,2.45
2023-08-28T00:49:53.509Z,2.95
2023-08-28T00:52:20.479Z,2.58
2023-08-28T00:54:48.684Z,2.70
2023-08-28T00:57:18.693Z,2.70
2023-08-28T00:59:47.049Z,2.20
2023-08-28T01:02:14.193Z,2.85
2023-08-28T01:04:41.276Z,2.72
2023-08-28T01:07:24.854Z,3.25
2023-08-28T01:10:07.054Z,2.72
2023-08-28T01:12:52.861Z,2.95
2023-08-28T01:15:21.947Z,2.78
2023-08-28T01:18:09.390Z,2.97
2023-08-28T01:20:38.169Z,2.45
2023-08-28T01:23:16.113Z,3.03
2023-08-28T01:25:43.214Z,2.60
2023-08-28T01:28:10.346Z,3.38
2023-08-28T01:30:37.341Z,3.53
2023-08-28T01:33:05.199Z,3.63
2023-08-28T01:35:33.254Z,3.00
2023-08-28T01:38:20.741Z,3.47
2023-08-28T01:41:08.940Z,2.97
2023-08-28T01:43:40.331Z,2.65
2023-08-28T01:46:08.146Z,2.92
2023-08-28T01:48:36.655Z,3.03
2023-08-28T01:51:03.861Z,2.83
2023-08-28T01:53:31.248Z,3.53
2023-08-28T01:56:10.372Z,3.03
2023-08-28T01:58:51.501Z,3.60
2023-08-28T02:01:19.896Z,2.92
2023-08-28T02:03:47.576Z,3.65
2023-08-28T02:06:14.820Z,3.55
2023-08-28T02:08:41.761Z,3.22
2023-08-28T02:11:08.762Z,3.88
2023-08-28T02:13:35.886Z,3.70
2023-08-28T02:16:03.939Z,2.97
2023-08-28T02:18:31.623Z,3.05
2023-08-28T02:20:59.898Z,3.78
2023-08-28T02:23:30.020Z,3.67
2023-08-28T02:25:57.017Z,3.47
2023-08-28T02:28:24.093Z,3.25
2023-08-28T02:30:51.031Z,3.40
2023-08-28T02:33:18.404Z,3.47
2023-08-28T02:35:46.009Z,3.53
2023-08-28T02:38:13.181Z,3.50
2023-08-28T02:40:40.449Z,3.40
2023-08-28T02:43:08.467Z,3.47
2023-08-28T02:45:40.854Z,3.75
2023-08-28T02:48:10.681Z,3.42
2023-08-28T02:50:38.525Z,3.95
2023-08-28T02:53:05.902Z,3.90
2023-08-28T02:55:41.470Z,3.60
2023-08-28T02:58:10.937Z,3.85
2023-08-28T03:00:39.252Z,3.78
2023-08-28T03:03:06.969Z,3.20
2023-08-28T03:05:34.549Z,4.07
2023-08-28T03:08:01.563Z,4.07
2023-08-28T03:10:31.132Z,3.92
2023-08-28T03:12:58.677Z,3.78
2023-08-28T03:15:25.669Z,3.75
2023-08-28T03:17:52.723Z,4.03
2023-08-28T03:20:19.670Z,3.28
2023-08-28T03:22:47.304Z,3.10
2023-08-28T03:25:15.120Z,2.97
2023-08-28T03:27:42.044Z,4.22
2023-08-28T03:30:10.505Z,3.63
2023-08-28T03:32:37.497Z,3.55
2023-08-28T03:35:04.723Z,3.10
2023-08-28T03:37:31.711Z,3.00
2023-08-28T03:39:58.703Z,3.35
2023-08-28T03:42:25.625Z,2.60
2023-08-28T03:44:52.657Z,2.90
2023-08-28T03:47:19.515Z,2.80
2023-08-28T03:49:46.679Z,2.88
2023-08-28T03:52:13.515Z,3.05
2023-08-28T03:54:41.081Z,2.95
2023-08-28T03:57:07.963Z,2.85
2023-08-28T03:59:35.052Z,3.40
2023-08-28T04:02:03.592Z,2.70
2023-08-28T04:04:31.353Z,3.28
2023-08-28T04:07:03.421Z,3.00
2023-08-28T04:09:31.163Z,3.20
2023-08-28T04:11:58.276Z,3.35
2023-08-28T04:14:25.395Z,3.38
2023-08-28T04:16:52.314Z,3.20
2023-08-28T04:19:19.320Z,3.05
2023-08-28T04:21:46.376Z,3.45
2023-08-28T04:24:13.319Z,3.40
2023-08-28T04:26:40.296Z,2.97
2023-08-28T04:29:07.188Z,3.75
2023-08-28T04:31:34.299Z,4.20
2023-08-28T04:34:01.206Z,3.30
2023-08-28T04:36:28.217Z,3.50
2023-08-28T04:38:55.863Z,4.05
2023-08-28T04:41:22.937Z,4.03
2023-08-28T04:43:49.885Z,4.60
2023-08-28T04:46:17.294Z,3.85
2023-08-28T04:48:44.300Z,3.80
2023-08-28T04:51:11.248Z,3.72
2023-08-28T04:53:38.326Z,4.13
2023-08-28T04:56:05.577Z,4.00
2023-08-28T04:58:32.809Z,4.00
2023-08-28T05:00:59.893Z,3.50
2023-08-28T05:03:27.027Z,3.63
2023-08-28T05:05:54.370Z,4.13
2023-08-28T05:08:21.945Z,4.82
2023-08-28T05:10:48.881Z,3.55
2023-08-28T05:13:16.014Z,4.05
2023-08-28T05:15:42.946Z,5.30
2023-08-28T05:18:13.335Z,4.35
2023-08-28T05:20:42.674Z,4.40
2023-08-28T05:23:10.214Z,4.40
2023-08-28T05:25:37.425Z,3.95
2023-08-28T05:28:04.824Z,3.97
2023-08-28T05:30:31.822Z,5.45
2023-08-28T05:32:59.131Z,5.25
2023-08-28T05:35:26.093Z,5.90
2023-08-28T05:37:53.897Z,4.75
2023-08-28T05:40:20.779Z,4.35
2023-08-28T05:42:47.888Z,4.45
2023-08-28T05:45:14.903Z,5.07
2023-08-28T05:47:42.812Z,4.68
2023-08-28T05:50:10.265Z,4.95
2023-08-28T05:52:39.051Z,5.20
2023-08-28T05:55:06.995Z,5.20
2023-08-28T05:57:35.843Z,5.38
2023-08-28T06:00:05.397Z,6.07
2023-08-28T06:02:39.760Z,7.13
2023-08-28T06:05:07.700Z,6.50
2023-08-28T06:07:35.078Z,5.70
2023-08-28T06:10:04.520Z,6.72
2023-08-28T06:12:31.450Z,6.85
2023-08-28T06:14:58.505Z,6.00
2023-08-28T06:17:25.460Z,6.20
2023-08-28T06:19:52.567Z,6.05
2023-08-28T06:22:20.636Z,6.97
2023-08-28T06:24:54.027Z,6.88
2023-08-28T06:27:21.421Z,8.13
2023-08-28T06:29:48.490Z,8.13
2023-08-28T06:32:16.283Z,9.70
2023-08-28T06:34:43.297Z,9.10
2023-08-28T06:37:10.157Z,9.35
2023-08-28T06:39:37.266Z,8.95
2023-08-28T06:42:04.390Z,9.77
2023-08-28T06:44:34.809Z,9.48
2023-08-28T06:47:01.689Z,9.27
2023-08-28T06:49:29.261Z,8.70
2023-08-28T06:51:56.342Z,8.90
2023-08-28T06:54:23.413Z,8.85
2023-08-28T06:56:50.317Z,6.57
2023-08-28T06:59:17.397Z,7.80
2023-08-28T07:01:44.754Z,7.47
2023-08-28T07:04:11.798Z,7.70
2023-08-28T07:06:38.661Z,7.30
2023-08-28T07:09:05.750Z,6.60
2023-08-28T07:11:32.689Z,6.25
2023-08-28T07:13:59.933Z,5.22
2023-08-28T07:16:27.125Z,3.28
2023-08-28T07:18:54.366Z,3.42
2023-08-28T07:21:22.102Z,3.80
2023-08-28T07:23:51.976Z,4.00
2023-08-28T07:26:19.979Z,3.60
2023-08-28T07:28:49.860Z,2.67
2023-08-28T07:31:17.064Z,2.80
2023-08-28T07:33:44.150Z,2.70
2023-08-28T07:36:11.302Z,3.10
2023-08-28T07:38:38.242Z,2.85
2023-08-28T07:41:05.478Z,2.25
2023-08-28T07:43:32.388Z,2.70
2023-08-28T07:45:59.349Z,1.45
2023-08-28T07:48:26.420Z,1.55
2023-08-28T07:50:53.467Z,1.48
2023-08-28T07:53:21.771Z,1.10
2023-08-28T07:55:48.846Z,1.13
2023-08-28T07:58:15.765Z,1.05
2023-08-28T08:00:43.968Z,1.20
2023-08-28T08:03:10.996Z,0.80
2023-08-28T08:05:38.120Z,1.42
2023-08-28T08:08:05.543Z,0.90
2023-08-28T08:10:33.625Z,0.80
2023-08-28T08:13:00.719Z,0.95
2023-08-28T08:15:28.074Z,0.70
2023-08-28T08:17:55.042Z,0.88
2023-08-28T08:20:22.304Z,0.70
2023-08-28T08:22:49.372Z,0.80
2023-08-28T08:25:16.515Z,0.77
2023-08-28T08:27:46.167Z,0.57
2023-08-28T08:30:14.980Z,1.02
2023-08-28T08:32:42.140Z,0.85
2023-08-28T08:35:10.543Z,1.13
2023-08-28T08:37:40.762Z,0.90
2023-08-28T08:40:15.078Z,1.30
2023-08-28T08:42:42.214Z,1.13
2023-08-28T08:45:11.087Z,1.15
2023-08-28T08:47:40.539Z,0.93
2023-08-28T08:50:09.851Z,0.93
2023-08-28T08:52:39.773Z,1.05
2023-08-28T08:55:30.839Z,1.48
2023-08-28T09:00:27.243Z,1.25
2023-08-28T09:02:54.793Z,0.95
2023-08-28T09:05:21.894Z,1.10
2023-08-28T09:07:49.694Z,1.30
2023-08-28T09:10:16.873Z,0.80
2023-08-28T09:12:44.219Z,0.90
2023-08-28T09:15:14.385Z,1.30
2023-08-28T09:17:42.552Z,0.75
2023-08-28T09:20:14.698Z,1.17
2023-08-28T09:22:53.955Z,1.10
2023-08-28T09:25:23.847Z,1.40
2023-08-28T09:27:53.274Z,1.13
2023-08-28T09:30:31.513Z,2.25
2023-08-28T09:33:00.953Z,0.93
2023-08-28T09:35:29.178Z,1.35
2023-08-28T09:37:57.986Z,2.35
2023-08-28T09:40:33.483Z,0.80
2023-08-28T09:43:01.215Z,0.65
2023-08-28T09:45:35.521Z,0.70
2023-08-28T09:48:07.110Z,0.80
2023-08-28T09:50:36.363Z,0.93
2023-08-28T09:53:08.454Z,0.80
2023-08-28T09:55:53.031Z,1.15
2023-08-28T09:58:23.300Z,0.90
2023-08-28T10:00:51.850Z,0.85
2023-08-28T10:03:19.113Z,1.48
2023-08-28T10:05:47.198Z,0.98
2023-08-28T10:08:16.320Z,1.02
2023-08-28T10:10:47.324Z,0.90
2023-08-28T10:13:20.847Z,1.02
2023-08-28T10:16:15.296Z,0.82
2023-08-28T10:18:50.112Z,1.05
2023-08-28T10:21:18.107Z,0.98
2023-08-28T10:23:46.241Z,1.13
2023-08-28T10:26:14.631Z,1.08
2023-08-28T10:28:42.621Z,1.08
2023-08-28T10:31:10.387Z,1.20
2023-08-28T10:33:37.779Z,1.00
2023-08-28T10:36:10.575Z,1.20
2023-08-28T10:38:43.845Z,1.00
2023-08-28T10:41:15.100Z,0.95
2023-08-28T10:43:42.178Z,1.33
2023-08-28T10:46:10.045Z,1.50
2023-08-28T10:48:40.679Z,1.08
2023-08-28T10:51:13.488Z,1.27
2023-08-28T10:53:41.050Z,1.02
2023-08-28T10:56:08.102Z,0.95
2023-08-28T10:58:38.650Z,0.90
2023-08-28T11:01:19.161Z,1.50
2023-08-28T11:03:52.293Z,1.40
2023-08-28T11:06:49.056Z,1.15
2023-08-28T11:09:28.871Z,1.13
2023-08-28T11:11:59.115Z,1.45
2023-08-28T11:14:43.277Z,1.25
2023-08-28T11:17:21.159Z,1.70
2023-08-28T11:19:57.612Z,1.65
2023-08-28T11:22:31.237Z,1.08
2023-08-28T11:24:59.036Z,1.13
2023-08-28T11:27:43.752Z,1.50
2023-08-28T11:30:13.249Z,1.45
2023-08-28T11:32:42.532Z,1.10
2023-08-28T11:35:10.820Z,1.38
2023-08-28T11:37:43.312Z,0.98
2023-08-28T11:40:11.179Z,1.15
2023-08-28T11:42:39.342Z,1.40
2023-08-28T11:45:07.679Z,1.00
2023-08-28T11:47:35.372Z,1.15
2023-08-28T11:50:05.875Z,1.10
2023-08-28T11:52:33.681Z,1.42
2023-08-28T11:55:05.235Z,1.33
2023-08-28T11:57:34.203Z,1.20
2023-08-28T12:00:06.140Z,0.85
2023-08-28T12:02:44.502Z,1.00
2023-08-28T12:05:13.416Z,1.60
2023-08-28T12:07:44.492Z,1.30
2023-08-28T12:10:13.219Z,1.60
2023-08-28T12:12:40.220Z,0.77
2023-08-28T12:15:09.638Z,1.35
2023-08-28T12:17:37.812Z,1.10
2023-08-28T12:20:08.015Z,1.20
2023-08-28T12:22:43.546Z,1.42
2023-08-28T12:25:10.539Z,1.40
2023-08-28T12:27:37.464Z,1.33
2023-08-28T12:30:06.306Z,1.25
2023-08-28T12:32:34.048Z,0.95
2023-08-28T12:35:13.591Z,1.30
2023-08-28T12:37:42.006Z,1.15
2023-08-28T12:40:12.258Z,1.10
2023-08-28T12:42:40.334Z,1.20
2023-08-28T12:45:07.843Z,1.08
2023-08-28T12:47:35.091Z,2.45
2023-08-28T12:50:01.986Z,1.30
2023-08-28T12:52:31.530Z,1.10
2023-08-28T12:55:00.239Z,1.10
2023-08-28T12:57:27.355Z,1.40
2023-08-28T12:59:54.295Z,1.20
2023-08-28T13:02:21.397Z,1.20
2023-08-28T13:04:49.050Z,1.40
2023-08-28T13:07:18.611Z,1.20
2023-08-28T13:09:47.672Z,1.65
2023-08-28T13:12:14.560Z,1.20
2023-08-28T13:14:41.627Z,1.30
2023-08-28T13:17:08.482Z,1.20
2023-08-28T13:19:35.548Z,1.17
2023-08-28T13:22:04.446Z,1.10
2023-08-28T13:24:42.983Z,1.17
2023-08-28T13:27:12.168Z,1.50
2023-08-28T13:29:39.544Z,1.13
2023-08-28T13:32:06.926Z,1.38
2023-08-28T13:34:33.790Z,0.82
2023-08-28T13:37:06.712Z,0.82
2023-08-28T13:39:34.310Z,1.45
2023-08-28T13:42:01.301Z,0.75
2023-08-28T13:44:30.399Z,0.93
2023-08-28T13:46:58.575Z,1.33
2023-08-28T13:49:25.574Z,0.80
2023-08-28T13:51:52.908Z,0.65
2023-08-28T13:54:20.080Z,0.70
2023-08-28T13:56:46.958Z,0.70
2023-08-28T13:59:14.098Z,1.08
2023-08-28T14:01:42.467Z,1.02
2023-08-28T14:04:10.498Z,0.63
2023-08-28T14:06:37.423Z,1.15
2023-08-28T14:09:05.351Z,0.75
2023-08-28T14:11:32.430Z,0.80
2023-08-28T14:13:59.570Z,1.20
2023-08-28T14:16:26.503Z,1.63
2023-08-28T14:18:53.589Z,0.70
2023-08-28T14:21:20.497Z,1.30
2023-08-28T14:23:47.528Z,1.10
2023-08-28T14:26:14.536Z,0.80
2023-08-28T14:28:41.706Z,0.60
2023-08-28T14:31:08.607Z,0.77
2023-08-28T14:33:37.575Z,1.85
2023-08-28T14:36:04.961Z,0.80
2023-08-28T14:38:32.653Z,1.00
2023-08-28T14:40:59.900Z,0.70
2023-08-28T14:43:27.006Z,0.70
2023-08-28T14:45:53.935Z,0.90
2023-08-28T14:48:21.265Z,1.10
2023-08-28T14:50:48.237Z,1.00
2023-08-28T14:53:15.284Z,0.55
2023-08-28T14:55:42.208Z,0.50
2023-08-28T14:58:09.167Z,0.63
2023-08-28T15:00:36.331Z,0.70
2023-08-28T15:03:04.528Z,0.73
2023-08-28T15:05:32.989Z,0.80
2023-08-28T15:08:11.801Z,0.52
2023-08-28T15:10:44.003Z,1.10
2023-08-28T15:13:10.953Z,0.57
2023-08-28T15:15:42.456Z,0.80
2023-08-28T15:18:09.644Z,1.02
2023-08-28T15:20:36.606Z,1.40
2023-08-28T15:23:04.752Z,0.63
2023-08-28T15:25:31.884Z,0.80
2023-08-28T15:27:58.922Z,0.85
2023-08-28T15:30:26.074Z,0.98
2023-08-28T15:32:53.010Z,0.63
2023-08-28T15:35:20.097Z,1.02
2023-08-28T15:37:47.157Z,0.70
2023-08-28T15:40:14.519Z,0.70
2023-08-28T15:42:41.477Z,1.25
2023-08-28T15:45:08.808Z,0.85
2023-08-28T15:47:37.528Z,0.65
2023-08-28T15:50:05.815Z,0.88
2023-08-28T15:52:32.685Z,0.75
2023-08-28T15:54:59.677Z,0.77
2023-08-28T15:57:26.520Z,0.63
2023-08-28T15:59:53.503Z,0.98
2023-08-28T16:02:20.365Z,0.50
2023-08-28T16:04:48.911Z,0.43
2023-08-28T16:07:16.016Z,0.68
2023-08-28T16:09:43.155Z,0.65
2023-08-28T16:12:10.155Z,0.75
2023-08-28T16:14:37.279Z,0.75
2023-08-28T16:17:04.774Z,1.48
2023-08-28T16:19:31.855Z,0.60
2023-08-28T16:21:58.856Z,0.52
2023-08-28T16:24:25.915Z,1.38
2023-08-28T16:26:52.852Z,1.25
2023-08-28T16:29:19.924Z,0.63
2023-08-28T16:31:46.812Z,0.90
2023-08-28T16:34:14.187Z,1.25
2023-08-28T16:36:41.027Z,0.93
2023-08-28T16:39:08.863Z,0.60
2023-08-28T16:41:36.079Z,0.75
2023-08-28T16:44:03.657Z,0.85
2023-08-28T16:46:31.704Z,0.80
2023-08-28T16:48:58.695Z,0.88
2023-08-28T16:51:25.924Z,1.20
2023-08-28T16:53:53.707Z,1.70
2023-08-28T16:56:21.144Z,0.60
2023-08-28T16:58:48.118Z,1.02
2023-08-28T17:01:15.172Z,0.95
2023-08-28T17:03:42.175Z,0.80
2023-08-28T17:06:09.247Z,1.02
2023-08-28T17:08:36.330Z,0.70
2023-08-28T17:11:03.440Z,0.57
2023-08-28T17:13:30.355Z,0.60
2023-08-28T17:15:57.620Z,0.70
2023-08-28T17:18:24.552Z,0.90
2023-08-28T17:20:51.595Z,1.10
2023-08-28T17:23:18.545Z,1.00
2023-08-28T17:25:45.939Z,0.77
2023-08-28T17:28:13.877Z,29.45
2023-08-28T17:30:41.018Z,10.52
2023-08-28T17:33:08.246Z,0.90
2023-08-28T17:35:35.575Z,0.93
2023-08-28T17:38:02.456Z,1.00
2023-08-28T17:40:30.870Z,0.75
2023-08-28T17:42:57.734Z,0.73
2023-08-28T17:45:24.722Z,1.00
2023-08-28T17:47:51.739Z,1.30
2023-08-28T17:50:19.915Z,1.05
2023-08-28T17:52:47.003Z,0.90
2023-08-28T17:55:13.950Z,0.80
2023-08-28T17:57:41.017Z,1.08
2023-08-28T18:00:08.621Z,0.80
2023-08-28T18:02:59.007Z,0.70
2023-08-28T18:05:28.218Z,0.70
2023-08-28T18:07:55.363Z,0.80
2023-08-28T18:10:22.330Z,0.93
2023-08-28T18:12:49.350Z,0.80
2023-08-28T18:15:18.480Z,0.82
2023-08-28T18:17:47.168Z,1.00
2023-08-28T18:20:14.205Z,1.00
2023-08-28T18:22:41.273Z,0.90
2023-08-28T18:25:08.667Z,0.73
2023-08-28T18:27:42.906Z,1.05
2023-08-28T18:30:16.637Z,1.00
2023-08-28T18:32:43.715Z,1.08
2023-08-28T18:35:10.960Z,1.25
2023-08-28T18:37:37.870Z,0.95
2023-08-28T18:40:06.617Z,1.58
2023-08-28T18:42:34.171Z,1.33
2023-08-28T18:45:01.242Z,0.88
2023-08-28T18:47:28.115Z,0.93
2023-08-28T18:49:55.153Z,1.73
2023-08-28T18:52:22.036Z,1.10
2023-08-28T18:54:49.075Z,5.40
2023-08-28T18:57:15.990Z,3.90
2023-08-28T18:59:42.966Z,2.13
2023-08-28T19:02:09.960Z,2.03
2023-08-28T19:04:37.244Z,4.13
2023-08-28T19:07:04.924Z,2.50
2023-08-28T19:09:31.831Z,1.58
2023-08-28T19:11:58.961Z,1.60
2023-08-28T19:14:25.858Z,1.35
2023-08-28T19:16:52.915Z,3.05
2023-08-28T19:19:19.929Z,1.70
2023-08-28T19:21:47.024Z,1.70
2023-08-28T19:24:13.973Z,1.52
2023-08-28T19:26:41.035Z,2.42
2023-08-28T19:29:07.972Z,1.63
2023-08-28T19:31:35.100Z,3.25
2023-08-28T19:34:02.122Z,2.13
2023-08-28T19:36:29.027Z,1.55
2023-08-28T19:38:56.284Z,2.83
2023-08-28T19:41:23.150Z,3.22
2023-08-28T19:43:50.308Z,2.33
2023-08-28T19:46:17.257Z,2.20
2023-08-28T19:48:46.204Z,1.67
2023-08-28T19:51:13.060Z,1.65
2023-08-28T19:53:40.940Z,2.20
2023-08-28T19:56:07.925Z,1.55
2023-08-28T19:58:34.945Z,1.98
2023-08-28T20:01:02.587Z,1.60
2023-08-28T20:03:29.926Z,1.65
2023-08-28T20:06:06.498Z,1.55
2023-08-28T20:08:33.739Z,1.50
2023-08-28T20:11:00.843Z,1.80
2023-08-28T20:13:27.771Z,1.67
2023-08-28T20:15:54.827Z,1.60
2023-08-28T20:18:23.918Z,2.13
2023-08-28T20:20:50.929Z,1.30
2023-08-28T20:23:17.867Z,1.70
2023-08-28T20:25:45.719Z,1.73
2023-08-28T20:28:12.777Z,1.45
2023-08-28T20:30:39.761Z,1.50
2023-08-28T20:33:06.886Z,1.40
2023-08-28T20:35:34.015Z,1.38
2023-08-28T20:38:00.930Z,2.58
2023-08-28T20:40:28.201Z,1.55
2023-08-28T20:42:55.172Z,1.45
2023-08-28T20:45:23.052Z,1.58
2023-08-28T20:47:52.962Z,1.63
2023-08-28T20:50:20.294Z,1.80
2023-08-28T20:52:47.736Z,1.88
2023-08-28T20:55:14.764Z,1.85
2023-08-28T20:57:42.091Z,2.10
2023-08-28T21:00:09.901Z,2.45
2023-08-28T21:02:37.545Z,1.55
2023-08-28T21:05:05.220Z,1.50
2023-08-28T21:07:32.375Z,1.80
2023-08-28T21:09:59.252Z,1.92
2023-08-28T21:12:26.276Z,1.77
2023-08-28T21:14:53.149Z,1.83
2023-08-28T21:17:20.126Z,1.73
2023-08-28T21:19:47.295Z,2.05
2023-08-28T21:22:14.358Z,1.52
2023-08-28T21:24:41.213Z,2.05
2023-08-28T21:27:08.236Z,1.95
2023-08-28T21:29:35.141Z,1.63
2023-08-28T21:32:02.908Z,2.45
2023-08-28T21:34:29.982Z,1.75
2023-08-28T21:36:57.096Z,2.53
2023-08-28T21:39:24.267Z,1.80
2023-08-28T21:41:51.205Z,1.60
2023-08-28T21:44:18.385Z,2.10
2023-08-28T21:46:45.270Z,2.05
2023-08-28T21:49:31.155Z,1.48
2023-08-28T21:52:17.067Z,2.65
2023-08-28T21:55:02.576Z,2.08
2023-08-28T21:57:48.181Z,1.70
2023-08-28T22:00:36.826Z,1.73
2023-08-28T22:03:22.469Z,1.58
2023-08-28T22:06:08.109Z,2.38
2023-08-28T22:08:35.310Z,1.73
2023-08-28T22:11:22.238Z,2.03
2023-08-28T22:13:57.392Z,1.90
2023-08-28T22:16:24.506Z,3.63
2023-08-28T22:18:51.734Z,2.10
2023-08-28T22:21:19.900Z,2.22
2023-08-28T22:23:47.171Z,2.42
2023-08-28T22:26:16.131Z,2.67
2023-08-28T22:28:43.218Z,2.65
2023-08-28T22:31:10.109Z,3.13
2023-08-28T22:33:37.175Z,2.38
2023-08-28T22:36:04.134Z,2.45
2023-08-28T22:38:31.148Z,2.20
2023-08-28T22:40:58.548Z,2.92
2023-08-28T22:43:26.038Z,3.03
2023-08-28T22:45:53.150Z,2.40
2023-08-28T22:48:20.168Z,2.75
2023-08-28T22:50:47.134Z,2.10
2023-08-28T22:53:14.148Z,2.97
2023-08-28T22:55:41.025Z,2.60
2023-08-28T22:58:08.278Z,2.47
2023-08-28T23:00:36.337Z,2.70
2023-08-28T23:03:03.418Z,2.47
2023-08-28T23:05:30.464Z,2.70
2023-08-28T23:07:57.702Z,2.63
2023-08-28T23:10:24.623Z,3.20
2023-08-28T23:12:51.655Z,3.20
2023-08-28T23:15:18.814Z,2.80
2023-08-28T23:17:45.717Z,3.60
2023-08-28T23:20:14.225Z,3.00
2023-08-28T23:22:41.819Z,3.25
2023-08-28T23:25:09.376Z,2.78
2023-08-28T23:27:36.809Z,3.00
2023-08-28T23:30:04.642Z,2.40
2023-08-28T23:32:32.633Z,3.53
2023-08-28T23:35:02.039Z,2.63
2023-08-28T23:37:30.465Z,2.85
2023-08-28T23:39:58.183Z,3.05
2023-08-28T23:42:25.370Z,3.03
2023-08-28T23:44:52.443Z,3.15
2023-08-28T23:47:19.662Z,2.55
2023-08-28T23:49:47.373Z,3.42
2023-08-28T23:52:14.411Z,3.13
2023-08-28T23:54:41.642Z,2.58
2023-08-28T23:57:08.608Z,3.30
2023-08-28T23:59:35.620Z,3.20
